createdAt,value
2024-02-01T00:01:31.329Z,98064.03
2024-02-01T00:04:01.503Z,98061.86
2024-02-01T00:06:34.692Z,98061.00
2024-02-01T00:09:04.803Z,98065.94
2024-02-01T00:11:34.919Z,98060.49
2024-02-01T00:14:05.244Z,98058.28
2024-02-01T00:16:35.332Z,98061.00
2024-02-01T00:19:06.615Z,98060.49
2024-02-01T00:21:36.810Z,98059.64
2024-02-01T00:24:07.549Z,98062.91
2024-02-01T00:26:37.743Z,98064.80
2024-02-01T00:29:07.809Z,98066.45
2024-02-01T00:31:39.267Z,98071.07
2024-02-01T00:34:09.591Z,98068.06
2024-02-01T00:36:39.912Z,98070.25
2024-02-01T00:39:10.430Z,98070.79
2024-02-01T00:41:40.596Z,98072.97
2024-02-01T00:44:10.883Z,98073.20
2024-02-01T00:46:41.878Z,98077.28
2024-02-01T00:49:12.511Z,98082.22
2024-02-01T00:51:42.711Z,98082.45
2024-02-01T00:54:12.814Z,98092.27
2024-02-01T00:56:42.987Z,98089.26
2024-02-01T00:59:14.648Z,98087.36
2024-02-01T01:01:46.121Z,98094.98
2024-02-01T01:04:20.383Z,98094.70
2024-02-01T01:06:50.450Z,98088.98
2024-02-01T01:09:20.619Z,98098.51
2024-02-01T01:11:50.798Z,98103.64
2024-02-01T01:14:23.047Z,98098.51
2024-02-01T01:16:53.141Z,98096.83
2024-02-01T01:19:23.790Z,98097.91
2024-02-01T01:21:54.233Z,98095.19
2024-02-01T01:24:24.562Z,98098.73
2024-02-01T01:26:54.626Z,98100.63
2024-02-01T01:29:26.278Z,98097.63
2024-02-01T01:31:57.289Z,98098.98
2024-02-01T01:34:29.325Z,98092.41
2024-02-01T01:37:01.458Z,98097.31
2024-02-01T01:39:31.516Z,98102.76
2024-02-01T01:42:04.273Z,98095.67
2024-02-01T01:44:34.440Z,98101.11
2024-02-01T01:47:04.541Z,98100.30
2024-02-01T01:49:34.785Z,98103.52
2024-02-01T01:52:04.903Z,98097.26
2024-02-01T01:54:34.863Z,98096.16
2024-02-01T01:57:05.310Z,98104.00
2024-02-01T01:59:35.633Z,98102.11
2024-02-01T02:02:06.005Z,98103.19
2024-02-01T02:04:37.207Z,98102.36
2024-02-01T02:07:07.523Z,98107.80
2024-02-01T02:09:37.539Z,98105.63
2024-02-01T02:12:08.402Z,98108.89
2024-02-01T02:14:38.600Z,98109.39
2024-02-01T02:17:08.702Z,98114.02
2024-02-01T02:19:41.493Z,98111.84
2024-02-01T02:22:13.351Z,98108.29
2024-02-01T02:24:46.011Z,98106.61
2024-02-01T02:27:18.128Z,98108.52
2024-02-01T02:29:49.293Z,98111.77
2024-02-01T02:32:19.581Z,98110.13
2024-02-01T02:34:49.799Z,98094.86
2024-02-01T02:37:20.008Z,98117.45
2024-02-01T02:39:50.057Z,98113.62
2024-02-01T02:42:20.274Z,98122.33
2024-02-01T02:44:50.511Z,98120.14
2024-02-01T02:47:20.530Z,98127.45
2024-02-01T02:49:53.259Z,98119.00
2024-02-01T02:52:24.535Z,98124.16
2024-02-01T02:54:54.751Z,98121.95
2024-02-01T02:57:25.199Z,98123.84
2024-02-01T02:59:55.602Z,98129.83
2024-02-01T03:02:25.750Z,98126.83
2024-02-01T03:04:55.758Z,98131.41
2024-02-01T03:07:25.893Z,98131.95
2024-02-01T03:09:57.235Z,98133.31
2024-02-01T03:12:27.730Z,98137.66
2024-02-01T03:14:58.797Z,98122.72
2024-02-01T03:17:32.006Z,98141.95
2024-02-01T03:20:02.074Z,98135.34
2024-02-01T03:22:33.583Z,98146.58
2024-02-01T03:25:04.688Z,98147.66
2024-02-01T03:27:34.910Z,98149.02
2024-02-01T03:30:05.189Z,98144.34
2024-02-01T03:32:36.786Z,98148.42
2024-02-01T03:35:07.630Z,98151.67
2024-02-01T03:37:39.138Z,98143.73
2024-02-01T03:40:10.927Z,98141.02
2024-02-01T03:42:41.027Z,98142.63
2024-02-01T03:45:13.992Z,98141.27
2024-02-01T03:47:44.038Z,98138.23
2024-02-01T03:50:14.941Z,98139.05
2024-02-01T03:52:46.433Z,98136.58
2024-02-01T03:55:23.019Z,98132.50
2024-02-01T03:57:54.177Z,98138.48
2024-02-01T04:00:27.272Z,98127.82
2024-02-01T04:03:03.212Z,98132.72
2024-02-01T04:05:35.548Z,98129.40
2024-02-01T04:08:14.138Z,98131.30
2024-02-01T04:10:45.584Z,98124.21
2024-02-01T04:13:16.107Z,98122.25
2024-02-01T04:15:46.350Z,98120.89
2024-02-01T04:18:16.599Z,98091.47
2024-02-01T04:20:46.899Z,98112.63
2024-02-01T04:23:21.285Z,98112.63
2024-02-01T04:25:51.716Z,98107.19
2024-02-01T04:28:21.956Z,98103.36
2024-02-01T04:30:53.765Z,98104.41
2024-02-01T04:33:24.513Z,98108.48
2024-02-01T04:35:54.674Z,98102.77
2024-02-01T04:38:26.123Z,98102.77
2024-02-01T04:40:57.398Z,98093.46
2024-02-01T04:43:30.656Z,98091.28
2024-02-01T04:46:02.852Z,98085.42
2024-02-01T04:48:35.683Z,98089.09
2024-02-01T04:51:05.963Z,98085.23
2024-02-01T04:53:36.187Z,98083.59
2024-02-01T04:56:06.752Z,98084.66
2024-02-01T04:58:36.743Z,98086.53
2024-02-01T05:01:08.644Z,98089.25
2024-02-01T05:03:39.752Z,98087.61
2024-02-01T05:06:11.630Z,98085.42
2024-02-01T05:08:41.894Z,98087.01
2024-02-01T05:11:13.473Z,98088.91
2024-02-01T05:13:43.504Z,98082.64
2024-02-01T05:16:15.164Z,98089.98
2024-02-01T05:18:45.430Z,98086.66
2024-02-01T05:21:15.730Z,98082.52
2024-02-01T05:23:47.478Z,98083.66
2024-02-01T05:26:17.595Z,98083.34
2024-02-01T05:28:47.609Z,98083.34
2024-02-01T05:31:17.636Z,98075.72
2024-02-01T05:33:47.697Z,98079.52
2024-02-01T05:36:17.911Z,98074.58
2024-02-01T05:38:49.396Z,98067.50
2024-02-01T05:41:19.551Z,98069.39
2024-02-01T05:43:49.686Z,98067.72
2024-02-01T05:46:19.974Z,98066.89
2024-02-01T05:48:52.634Z,98062.53
2024-02-01T05:51:22.749Z,98059.52
2024-02-01T05:53:54.517Z,98058.38
2024-02-01T05:56:24.898Z,98058.38
2024-02-01T05:58:55.539Z,98061.64
2024-02-01T06:01:26.377Z,98055.06
2024-02-01T06:03:58.174Z,98056.42
2024-02-01T06:06:33.256Z,98055.32
2024-02-01T06:09:01.333Z,98053.64
2024-02-01T06:11:32.395Z,98048.74
2024-02-01T06:14:02.651Z,98040.23
2024-02-01T06:16:32.860Z,98043.55
2024-02-01T06:19:03.116Z,98044.31
2024-02-01T06:21:34.557Z,98037.52
2024-02-01T06:24:06.151Z,98032.61
2024-02-01T06:26:36.342Z,98032.30
2024-02-01T06:29:10.647Z,98039.63
2024-02-01T06:31:40.886Z,98028.47
2024-02-01T06:34:12.757Z,98036.85
2024-02-01T06:36:44.174Z,98034.67
2024-02-01T06:39:22.776Z,98039.83
2024-02-01T06:41:54.866Z,98038.97
2024-02-01T06:44:26.418Z,98037.86
2024-02-01T06:47:02.615Z,98037.55
2024-02-01T06:49:41.403Z,98035.36
2024-02-01T06:52:23.092Z,98031.82
2024-02-01T06:54:58.137Z,98031.54
2024-02-01T06:57:30.532Z,98025.50
2024-02-01T07:00:05.564Z,98021.64
2024-02-01T07:02:40.495Z,98012.84
2024-02-01T07:05:15.546Z,98018.64
2024-02-01T07:07:46.966Z,98023.25
2024-02-01T07:10:18.643Z,98018.58
2024-02-01T07:12:58.979Z,98013.67
2024-02-01T07:15:32.694Z,98015.57
2024-02-01T07:18:09.046Z,98000.17
2024-02-01T07:20:41.150Z,98012.25
2024-02-01T07:23:26.178Z,98011.42
2024-02-01T07:26:11.781Z,98010.58
2024-02-01T07:29:00.609Z,98008.64
2024-02-01T07:31:48.804Z,98004.56
2024-02-01T07:34:36.767Z,98010.76
2024-02-01T07:37:24.512Z,98009.41
2024-02-01T07:40:12.081Z,98007.57
2024-02-01T07:43:01.169Z,98009.21
2024-02-01T07:45:50.027Z,98009.81
2024-02-01T07:48:37.876Z,98001.98
2024-02-01T07:51:25.979Z,97999.54
2024-02-01T07:54:13.550Z,97998.78
2024-02-01T07:57:01.812Z,97997.48
2024-02-01T07:59:34.107Z,97998.38
2024-02-01T08:02:17.791Z,97994.03
2024-02-01T08:05:07.112Z,97995.77
2024-02-01T08:07:50.933Z,97997.48
2024-02-01T08:10:22.160Z,97989.92
2024-02-01T08:12:52.167Z,97996.24
2024-02-01T08:15:22.901Z,97996.30
2024-02-01T08:17:53.369Z,97990.45
2024-02-01T08:20:23.816Z,97990.45
2024-02-01T08:22:54.149Z,97987.78
2024-02-01T08:25:26.539Z,97984.53
2024-02-01T08:27:56.742Z,97979.38
2024-02-01T08:30:34.918Z,97978.33
2024-02-01T08:33:09.445Z,97975.61
2024-02-01T08:35:41.128Z,97970.98
2024-02-01T08:38:11.768Z,97970.98
2024-02-01T08:40:45.289Z,97972.88
2024-02-01T08:43:17.451Z,97965.55
2024-02-01T08:45:48.585Z,97972.13
2024-02-01T08:48:19.835Z,97959.51
2024-02-01T08:50:51.398Z,97967.19
2024-02-01T08:53:21.739Z,97956.84
2024-02-01T08:55:53.957Z,97959.56
2024-02-01T08:58:24.438Z,97948.40
2024-02-01T09:00:54.594Z,97951.13
2024-02-01T09:03:26.151Z,97951.95
2024-02-01T09:05:56.589Z,97949.77
2024-02-01T09:08:41.002Z,97943.19
2024-02-01T09:11:14.068Z,97942.36
2024-02-01T09:13:50.445Z,97947.80
2024-02-01T09:16:25.334Z,97940.19
2024-02-01T09:18:56.149Z,97936.64
2024-02-01T09:21:27.422Z,97930.89
2024-02-01T09:23:59.993Z,97926.52
2024-02-01T09:26:30.490Z,97926.52
2024-02-01T09:29:00.621Z,97920.80
2024-02-01T09:31:31.744Z,97923.20
2024-02-01T09:34:02.777Z,97910.69
2024-02-01T09:36:32.905Z,97907.97
2024-02-01T09:39:04.378Z,97909.55
2024-02-01T09:41:34.388Z,97909.55
2024-02-01T09:44:05.736Z,97902.47
2024-02-01T09:46:36.403Z,97899.44
2024-02-01T09:49:12.757Z,97896.16
2024-02-01T09:51:39.389Z,97896.16
2024-02-01T09:54:11.115Z,97893.44
2024-02-01T09:56:43.015Z,97889.84
2024-02-01T09:59:16.533Z,97896.92
2024-02-01T10:01:46.627Z,97887.34
2024-02-01T10:04:18.009Z,97890.60
2024-02-01T10:06:48.464Z,97885.11
2024-02-01T10:09:24.987Z,97885.11
2024-02-01T10:11:56.311Z,97882.10
2024-02-01T10:14:27.821Z,97881.25
2024-02-01T10:16:58.590Z,97877.42
2024-02-01T10:19:29.662Z,97874.39
2024-02-01T10:22:10.177Z,97855.16
2024-02-01T10:24:51.520Z,97869.09
2024-02-01T10:27:29.393Z,97872.16
2024-02-01T10:29:57.831Z,97869.69
2024-02-01T10:32:28.473Z,97867.52
2024-02-01T10:34:59.733Z,97872.35
2024-02-01T10:37:30.666Z,97869.64
2024-02-01T10:40:09.567Z,97867.68
2024-02-01T10:42:39.714Z,97859.24
2024-02-01T10:45:13.930Z,97852.95
2024-02-01T10:47:49.185Z,97855.92
2024-02-01T10:50:20.583Z,97854.25
2024-02-01T10:52:52.226Z,97852.61
2024-02-01T10:55:22.378Z,97846.89
2024-02-01T10:57:52.378Z,97844.40
2024-02-01T11:00:23.097Z,97846.02
2024-02-01T11:02:58.003Z,97847.06
2024-02-01T11:05:33.436Z,97846.23
2024-02-01T11:08:04.750Z,97839.98
2024-02-01T11:10:34.832Z,97838.02
2024-02-01T11:13:07.038Z,97843.72
2024-02-01T11:15:37.629Z,97822.84
2024-02-01T11:18:14.483Z,97833.07
2024-02-01T11:20:44.749Z,97836.01
2024-02-01T11:23:17.553Z,97831.11
2024-02-01T11:25:49.125Z,97827.80
2024-02-01T11:28:32.053Z,97824.80
2024-02-01T11:31:11.045Z,97827.23
2024-02-01T11:33:39.293Z,97827.45
2024-02-01T11:36:10.168Z,97817.95
2024-02-01T11:38:43.316Z,97825.28
2024-02-01T11:41:13.600Z,97817.31
2024-02-01T11:43:44.653Z,97816.50
2024-02-01T11:46:14.773Z,97812.95
2024-02-01T11:48:45.980Z,97818.93
2024-02-01T11:51:16.346Z,97819.98
2024-02-01T11:53:47.546Z,97817.80
2024-02-01T11:56:17.722Z,97822.41
2024-02-01T11:58:48.852Z,97819.63
2024-02-01T12:01:19.004Z,97822.89
2024-02-01T12:03:55.998Z,97823.96
2024-02-01T12:06:26.492Z,97827.72
2024-02-01T12:08:58.093Z,97828.80
2024-02-01T12:11:30.212Z,97824.19
2024-02-01T12:14:02.312Z,97824.95
2024-02-01T12:16:33.182Z,97817.34
2024-02-01T12:19:04.859Z,97824.66
2024-02-01T12:21:36.315Z,97822.17
2024-02-01T12:24:06.855Z,97821.89
2024-02-01T12:26:37.031Z,97814.27
2024-02-01T12:29:08.392Z,97807.70
2024-02-01T12:31:39.302Z,97803.63
2024-02-01T12:34:09.619Z,97806.95
2024-02-01T12:36:40.295Z,97803.47
2024-02-01T12:39:10.647Z,97810.00
2024-02-01T12:41:41.394Z,97809.78
2024-02-01T12:44:12.835Z,97818.22
2024-02-01T12:46:44.655Z,97823.48
2024-02-01T12:49:15.326Z,97818.67
2024-02-01T12:51:46.842Z,97825.34
2024-02-01T12:54:17.812Z,97826.98
2024-02-01T12:56:49.333Z,97831.42
2024-02-01T12:59:19.370Z,97830.95
2024-02-01T13:01:49.398Z,97831.83
2024-02-01T13:04:19.615Z,97837.32
2024-02-01T13:06:49.897Z,97830.58
2024-02-01T13:09:21.681Z,97831.15
2024-02-01T13:11:53.199Z,97823.05
2024-02-01T13:14:23.502Z,97825.82
2024-02-01T13:16:53.692Z,97824.83
2024-02-01T13:19:24.095Z,97824.35
2024-02-01T13:21:54.571Z,97832.56
2024-02-01T13:24:24.717Z,97831.26
2024-02-01T13:26:54.955Z,97830.77
2024-02-01T13:29:26.024Z,97825.39
2024-02-01T13:31:57.248Z,97827.91
2024-02-01T13:34:28.767Z,97824.70
2024-02-01T13:37:00.133Z,97826.97
2024-02-01T13:39:32.599Z,97823.16
2024-02-01T13:42:04.832Z,97825.68
2024-02-01T13:44:35.707Z,97827.95
2024-02-01T13:47:09.334Z,97828.51
2024-02-01T13:49:41.869Z,97832.09
2024-02-01T13:52:12.943Z,97833.28
2024-02-01T13:54:43.065Z,97827.07
2024-02-01T13:57:13.262Z,97818.91
2024-02-01T13:59:43.448Z,97820.27
2024-02-01T14:02:15.495Z,97824.36
2024-02-01T14:04:45.820Z,97833.88
2024-02-01T14:07:16.656Z,97841.50
2024-02-01T14:09:46.925Z,97837.42
2024-02-01T14:12:17.159Z,97819.73
2024-02-01T14:14:47.405Z,97829.00
2024-02-01T14:17:18.900Z,97824.09
2024-02-01T14:19:49.111Z,97818.97
2024-02-01T14:22:19.555Z,97790.37
2024-02-01T14:24:52.595Z,97814.57
2024-02-01T14:27:25.245Z,97817.29
2024-02-01T14:29:56.742Z,97814.57
2024-02-01T14:32:26.986Z,97811.57
2024-02-01T14:34:58.297Z,97816.47
2024-02-01T14:37:29.107Z,97827.35
2024-02-01T14:40:01.149Z,97818.09
2024-02-01T14:42:32.389Z,97812.06
2024-02-01T14:45:03.223Z,97815.32
2024-02-01T14:47:33.314Z,97828.13
2024-02-01T14:50:04.540Z,97833.28
2024-02-01T14:52:34.541Z,97836.00
2024-02-01T14:55:07.496Z,97840.09
2024-02-01T14:57:37.596Z,97828.07
2024-02-01T15:00:12.361Z,97829.97
2024-02-01T15:02:42.458Z,97832.41
2024-02-01T15:05:14.102Z,97847.06
2024-02-01T15:07:44.080Z,97833.45
2024-02-01T15:10:15.768Z,97832.95
2024-02-01T15:12:47.725Z,97836.44
2024-02-01T15:15:20.719Z,97831.00
2024-02-01T15:17:51.921Z,97824.97
2024-02-01T15:20:23.486Z,97822.78
2024-02-01T15:22:53.913Z,97826.05
2024-02-01T15:25:25.061Z,97824.91
2024-02-01T15:27:56.620Z,97827.63
2024-02-01T15:30:26.801Z,97836.33
2024-02-01T15:32:58.287Z,97833.33
2024-02-01T15:35:32.231Z,97831.97
2024-02-01T15:38:03.787Z,97812.23
2024-02-01T15:40:33.857Z,97826.48
2024-02-01T15:43:04.011Z,97818.32
2024-02-01T15:45:35.203Z,97816.11
2024-02-01T15:48:06.818Z,97817.47
2024-02-01T15:50:38.406Z,97809.03
2024-02-01T15:53:09.828Z,97806.84
2024-02-01T15:55:41.584Z,97799.23
2024-02-01T15:58:13.910Z,97795.38
2024-02-01T16:00:44.058Z,97792.66
2024-02-01T16:03:14.199Z,97791.30
2024-02-01T16:06:02.902Z,97785.58
2024-02-01T16:08:33.595Z,97801.36
2024-02-01T16:11:05.995Z,97793.42
2024-02-01T16:13:41.929Z,97793.42
2024-02-01T16:16:16.762Z,97798.58
2024-02-01T16:18:47.233Z,97789.88
2024-02-01T16:21:18.293Z,97783.52
2024-02-01T16:23:48.495Z,97793.91
2024-02-01T16:26:18.682Z,97793.91
2024-02-01T16:28:49.025Z,97797.98
2024-02-01T16:31:21.557Z,97797.71
2024-02-01T16:34:00.619Z,97791.45
2024-02-01T16:36:43.608Z,97790.63
2024-02-01T16:39:23.473Z,97783.23
2024-02-01T16:41:58.583Z,97784.59
2024-02-01T16:44:46.093Z,97772.36
2024-02-01T16:47:28.432Z,97773.41
2024-02-01T16:49:59.488Z,97773.95
2024-02-01T16:52:48.028Z,97768.23
2024-02-01T16:55:29.864Z,97750.34
2024-02-01T16:58:00.394Z,97743.38
2024-02-01T17:00:34.229Z,97754.31
2024-02-01T17:03:16.767Z,97744.52
2024-02-01T17:05:38.480Z,97744.24
2024-02-01T17:08:09.022Z,97733.64
2024-02-01T17:10:41.880Z,97728.20
2024-02-01T17:13:12.340Z,97719.77
2024-02-01T17:15:45.567Z,97723.03
2024-02-01T17:18:22.748Z,97719.45
2024-02-01T17:20:52.860Z,97716.23
2024-02-01T17:23:26.757Z,97713.52
2024-02-01T17:26:09.690Z,97709.94
2024-02-01T17:28:41.602Z,97705.59
2024-02-01T17:31:19.035Z,97693.30
2024-02-01T17:34:01.299Z,97693.30
2024-02-01T17:36:39.330Z,97691.40
2024-02-01T17:39:15.035Z,97678.06
2024-02-01T17:41:50.211Z,97669.59
2024-02-01T17:44:31.700Z,97660.08
2024-02-01T17:47:05.367Z,97655.72
2024-02-01T17:49:52.815Z,97653.00
2024-02-01T17:52:41.091Z,97642.95
2024-02-01T17:55:22.426Z,97629.62
2024-02-01T17:57:56.612Z,97629.62
2024-02-01T18:00:33.685Z,97624.18
2024-02-01T18:03:04.699Z,97616.53
2024-02-01T18:05:35.683Z,97598.58
2024-02-01T18:08:06.672Z,97600.77
2024-02-01T18:10:41.862Z,97604.84
2024-02-01T18:13:11.901Z,97598.58
2024-02-01T18:16:01.473Z,97595.87
2024-02-01T18:18:35.381Z,97588.53
2024-02-01T18:21:09.206Z,97580.59
2024-02-01T18:23:41.508Z,97576.02
2024-02-01T18:26:11.768Z,97576.83
2024-02-01T18:28:42.807Z,97571.94
2024-02-01T18:31:17.589Z,97556.45
2024-02-01T18:33:51.435Z,97555.09
2024-02-01T18:36:33.072Z,97550.73
2024-02-01T18:39:09.880Z,97545.57
2024-02-01T18:41:43.331Z,97547.75
2024-02-01T18:44:18.200Z,97544.75
2024-02-01T18:46:52.138Z,97528.44
2024-02-01T18:49:24.770Z,97520.83
2024-02-01T18:52:02.812Z,97521.92
2024-02-01T18:54:37.241Z,97507.52
2024-02-01T18:57:08.875Z,97505.61
2024-02-01T18:59:41.861Z,97496.09
2024-02-01T19:02:16.067Z,97492.02
2024-02-01T19:04:47.327Z,97487.40
2024-02-01T19:07:17.488Z,97484.68
2024-02-01T19:09:48.901Z,97475.70
2024-02-01T19:12:25.540Z,97484.17
2024-02-01T19:14:57.142Z,97475.47
2024-02-01T19:17:37.998Z,97469.22
2024-02-01T19:20:11.209Z,97472.75
2024-02-01T19:22:41.779Z,97472.21
2024-02-01T19:25:12.792Z,97472.75
2024-02-01T19:27:44.585Z,97461.34
2024-02-01T19:30:17.898Z,97460.80
2024-02-01T19:32:49.265Z,97454.81
2024-02-01T19:35:22.164Z,97448.56
2024-02-01T19:37:56.331Z,97442.58
2024-02-01T19:40:26.925Z,97441.53
2024-02-01T19:42:57.520Z,97432.52
2024-02-01T19:45:27.856Z,97422.78
2024-02-01T19:47:58.210Z,97413.80
2024-02-01T19:50:30.141Z,97399.12
2024-02-01T19:53:00.969Z,97388.79
2024-02-01T19:55:31.951Z,97384.98
2024-02-01T19:58:02.956Z,97369.45
2024-02-01T20:00:34.428Z,97380.91
2024-02-01T20:03:04.706Z,97376.32
2024-02-01T20:05:36.026Z,97371.16
2024-02-01T20:08:06.765Z,97365.17
2024-02-01T20:10:39.712Z,97361.41
2024-02-01T20:13:10.095Z,97352.70
2024-02-01T20:15:43.908Z,97351.34
2024-02-01T20:18:18.695Z,97346.45
2024-02-01T20:20:50.519Z,97338.02
2024-02-01T20:23:21.086Z,97334.48
2024-02-01T20:25:51.186Z,97343.47
2024-02-01T20:28:50.737Z,97340.74
2024-02-01T20:31:23.144Z,97334.77
2024-02-01T20:34:00.822Z,97326.61
2024-02-01T20:36:39.451Z,97327.15
2024-02-01T20:39:28.789Z,97322.53
2024-02-01T20:42:03.115Z,97318.45
2024-02-01T20:44:35.440Z,97315.73
2024-02-01T20:47:09.690Z,97307.50
2024-02-01T20:49:42.724Z,97310.59
2024-02-01T20:52:14.649Z,97308.16
2024-02-01T20:55:12.668Z,97315.77
2024-02-01T20:58:09.959Z,97302.17
2024-02-01T21:00:40.276Z,97313.05
2024-02-01T21:03:10.530Z,97305.19
2024-02-01T21:05:42.807Z,97309.00
2024-02-01T21:08:34.893Z,97302.75
2024-02-01T21:11:08.197Z,97299.25
2024-02-01T21:13:38.206Z,97295.44
2024-02-01T21:16:09.690Z,97293.53
2024-02-01T21:18:39.940Z,97292.99
2024-02-01T21:21:10.265Z,97283.78
2024-02-01T21:23:52.369Z,97282.69
2024-02-01T21:26:27.621Z,97278.06
2024-02-01T21:29:02.841Z,97272.63
2024-02-01T21:31:38.468Z,97267.77
2024-02-01T21:34:08.582Z,97264.50
2024-02-01T21:36:38.893Z,97261.00
2024-02-01T21:39:09.894Z,97260.19
2024-02-01T21:41:39.986Z,97265.11
2024-02-01T21:44:11.727Z,97263.75
2024-02-01T21:46:41.852Z,97258.89
2024-02-01T21:49:13.677Z,97260.25
2024-02-01T21:51:43.962Z,97260.81
2024-02-01T21:54:14.110Z,97261.09
2024-02-01T21:56:44.112Z,97260.30
2024-02-01T21:59:18.524Z,97261.94
2024-02-01T22:01:49.589Z,97259.79
2024-02-01T22:04:41.970Z,97250.54
2024-02-01T22:07:12.160Z,97253.56
2024-02-01T22:09:42.114Z,97247.30
2024-02-01T22:12:14.825Z,97245.70
2024-02-01T22:14:45.486Z,97236.45
2024-02-01T22:17:15.571Z,97239.47
2024-02-01T22:19:46.994Z,97242.22
2024-02-01T22:22:18.103Z,97241.68
2024-02-01T22:24:49.228Z,97242.25
2024-02-01T22:27:20.332Z,97241.19
2024-02-01T22:30:05.895Z,97248.02
2024-02-01T22:32:37.699Z,97243.15
2024-02-01T22:35:08.422Z,97242.33
2024-02-01T22:37:39.074Z,97246.17
2024-02-01T22:40:10.654Z,97244.84
2024-02-01T22:42:40.738Z,97238.30
2024-02-01T22:45:11.341Z,97241.33
2024-02-01T22:47:42.840Z,97244.31
2024-02-01T22:50:13.875Z,97241.08
2024-02-01T22:52:44.005Z,97242.19
2024-02-01T22:55:14.139Z,97245.73
2024-02-01T22:57:44.245Z,97246.30
2024-02-01T23:00:16.470Z,97244.39
2024-02-01T23:02:46.805Z,97246.33
2024-02-01T23:05:17.203Z,97244.69
2024-02-01T23:07:48.666Z,97235.46
2024-02-01T23:10:20.854Z,97241.75
2024-02-01T23:12:53.500Z,97234.37
2024-02-01T23:15:25.831Z,97239.05
2024-02-01T23:17:57.586Z,97234.42
2024-02-01T23:20:28.952Z,97233.63
2024-02-01T23:22:59.424Z,97231.72
2024-02-01T23:25:30.583Z,97235.53
2024-02-01T23:28:00.897Z,97231.99
2024-02-01T23:30:31.042Z,97231.75
2024-02-01T23:33:01.445Z,97224.39
2024-02-01T23:35:31.761Z,97235.00
2024-02-01T23:38:02.724Z,97224.96
2024-02-01T23:40:32.864Z,97228.77
2024-02-01T23:43:02.994Z,97233.16
2024-02-01T23:45:33.148Z,97235.88
2024-02-01T23:48:03.395Z,97236.14
2024-02-01T23:50:33.522Z,97241.59
2024-02-01T23:53:04.893Z,97250.02
2024-02-01T23:55:34.909Z,97250.02
2024-02-01T23:58:06.364Z,97251.93
